createdAt,value
2018-01-12T00:00:20.784Z,76.51
2018-01-12T00:02:49.455Z,76.34
2018-01-12T00:05:17.944Z,76.27
2018-01-12T00:07:46.670Z,76.23
2018-01-12T00:10:16.203Z,76.17
2018-01-12T00:12:44.696Z,75.86
2018-01-12T00:15:13.947Z,75.78
2018-01-12T00:17:42.487Z,76.27
2018-01-12T00:20:10.975Z,76.17
2018-01-12T00:22:39.463Z,76.57
2018-01-12T00:25:08.492Z,76.53
2018-01-12T00:27:36.982Z,76.30
2018-01-12T00:30:05.655Z,76.54
2018-01-12T00:32:34.220Z,76.16
2018-01-12T00:35:02.838Z,76.19
2018-01-12T00:37:31.330Z,76.64
2018-01-12T00:40:00.091Z,76.79
2018-01-12T00:42:28.789Z,77.23
2018-01-12T00:44:57.464Z,77.18
2018-01-12T00:47:26.283Z,76.72
2018-01-12T00:49:54.807Z,76.10
2018-01-12T00:52:23.520Z,76.12
2018-01-12T00:54:52.141Z,76.00
2018-01-12T00:57:21.545Z,75.82
2018-01-12T00:59:50.056Z,76.23
2018-01-12T01:02:18.599Z,75.99
2018-01-12T01:04:47.298Z,76.58
2018-01-12T01:07:16.765Z,77.19
2018-01-12T01:09:45.291Z,77.75
2018-01-12T01:12:14.549Z,77.17
2018-01-12T01:14:43.129Z,77.17
2018-01-12T01:17:11.867Z,76.58
2018-01-12T01:19:41.124Z,76.38
2018-01-12T01:22:09.802Z,76.74
2018-01-12T01:24:38.344Z,76.47
2018-01-12T01:27:06.841Z,76.44
2018-01-12T01:29:35.552Z,75.86
2018-01-12T01:32:04.340Z,76.82
2018-01-12T01:34:32.831Z,76.24
2018-01-12T01:37:01.510Z,75.46
2018-01-12T01:39:30.052Z,75.46
2018-01-12T01:41:58.547Z,74.91
2018-01-12T01:44:27.209Z,74.40
2018-01-12T01:46:56.696Z,73.77
2018-01-12T01:49:26.120Z,73.81
2018-01-12T01:51:55.367Z,73.35
2018-01-12T01:54:24.156Z,74.36
2018-01-12T01:56:53.003Z,75.63
2018-01-12T01:59:22.089Z,75.12
2018-01-12T02:04:26.879Z,74.00
2018-01-12T02:06:55.410Z,73.67
2018-01-12T02:09:24.761Z,74.00
2018-01-12T02:11:53.557Z,73.96
2018-01-12T02:21:07.887Z,74.28
2018-01-12T02:23:37.142Z,74.48
2018-01-12T02:26:06.410Z,74.79
2018-01-12T02:28:35.262Z,75.58
2018-01-12T02:31:04.028Z,76.03
2018-01-12T02:33:32.518Z,75.98
2018-01-12T02:36:01.111Z,75.88
2018-01-12T02:38:29.604Z,76.48
2018-01-12T02:40:58.851Z,75.64
2018-01-12T02:43:27.412Z,74.94
2018-01-12T02:45:56.008Z,75.28
2018-01-12T02:48:24.682Z,75.64
2018-01-12T02:50:53.438Z,75.37
2018-01-12T02:53:22.093Z,76.11
2018-01-12T02:55:50.778Z,75.98
2018-01-12T02:58:19.500Z,75.85
2018-01-12T03:00:47.983Z,76.08
2018-01-12T03:03:17.238Z,75.38
2018-01-12T03:05:45.802Z,76.16
2018-01-12T03:08:14.515Z,75.64
2018-01-12T03:10:43.767Z,75.80
2018-01-12T03:13:13.360Z,75.91
2018-01-12T03:15:42.832Z,75.89
2018-01-12T03:18:11.323Z,76.15
2018-01-12T03:20:39.855Z,75.63
2018-01-12T03:23:08.582Z,75.00
2018-01-12T03:25:37.219Z,74.91
2018-01-12T03:28:06.543Z,75.21
2018-01-12T03:30:35.024Z,75.16
2018-01-12T03:33:03.623Z,74.48
2018-01-12T03:35:32.451Z,73.97
2018-01-12T03:38:01.816Z,73.67
2018-01-12T03:40:30.303Z,72.43
2018-01-12T03:42:59.188Z,72.02
2018-01-12T03:45:27.667Z,73.37
2018-01-12T03:47:56.251Z,74.33
2018-01-12T03:50:25.401Z,75.42
2018-01-12T03:52:54.853Z,75.74
2018-01-12T03:55:23.538Z,74.87
2018-01-12T03:57:52.354Z,75.55
2018-01-12T04:00:21.011Z,76.16
2018-01-12T04:02:49.495Z,75.65
2018-01-12T04:05:18.029Z,75.08
2018-01-12T04:07:47.280Z,74.58
2018-01-12T04:10:15.918Z,74.64
2018-01-12T04:12:44.911Z,74.50
2018-01-12T04:15:13.391Z,75.25
2018-01-12T04:17:42.639Z,75.59
2018-01-12T04:20:11.491Z,75.18
2018-01-12T04:22:39.975Z,74.20
2018-01-12T04:25:08.455Z,74.16
2018-01-12T04:27:36.983Z,73.87
2018-01-12T04:30:05.495Z,74.36
2018-01-12T04:32:34.797Z,75.32
2018-01-12T04:35:04.498Z,74.76
2018-01-12T04:37:33.963Z,74.91
2018-01-12T04:40:02.452Z,75.00
2018-01-12T04:42:30.980Z,75.86
2018-01-12T04:45:00.226Z,76.03
2018-01-12T04:47:28.711Z,75.99
2018-01-12T04:49:57.423Z,76.00
2018-01-12T04:52:25.910Z,76.43
2018-01-12T04:54:55.378Z,75.54
2018-01-12T04:57:24.108Z,75.30
2018-01-12T04:59:53.528Z,76.41
2018-01-12T05:02:22.780Z,75.74
2018-01-12T05:04:51.571Z,75.44
2018-01-12T05:07:20.061Z,75.82
2018-01-12T05:09:49.028Z,76.51
2018-01-12T05:12:17.572Z,76.65
2018-01-12T05:14:46.061Z,76.35
2018-01-12T05:17:14.559Z,76.75
2018-01-12T05:19:43.468Z,77.38
2018-01-12T05:22:11.957Z,76.79
2018-01-12T05:24:40.439Z,76.83
2018-01-12T05:27:09.423Z,77.00
2018-01-12T05:29:37.911Z,77.24
2018-01-12T05:32:06.392Z,76.50
2018-01-12T05:34:34.940Z,76.26
2018-01-12T05:37:04.103Z,76.27
2018-01-12T05:39:36.095Z,76.66
2018-01-12T05:42:05.471Z,77.28
2018-01-12T05:44:34.727Z,76.63
2018-01-12T05:47:03.247Z,76.55
2018-01-12T05:49:33.029Z,76.58
2018-01-12T05:52:01.519Z,76.89
2018-01-12T05:54:30.289Z,77.00
2018-01-12T05:56:59.012Z,77.43
2018-01-12T05:59:27.823Z,77.06
2018-01-12T06:02:14.703Z,77.19
2018-01-12T06:05:01.269Z,76.91
2018-01-12T06:07:29.804Z,77.60
2018-01-12T06:09:59.270Z,77.03
2018-01-12T06:12:27.755Z,77.44
2018-01-12T06:14:56.543Z,76.96
2018-01-12T06:17:25.029Z,76.73
2018-01-12T06:19:53.522Z,76.79
2018-01-12T06:22:22.241Z,76.86
2018-01-12T06:24:51.593Z,77.42
2018-01-12T06:27:20.088Z,76.75
2018-01-12T06:29:48.624Z,76.54
2018-01-12T06:32:17.116Z,76.69
2018-01-12T06:34:45.603Z,78.28
2018-01-12T06:37:14.134Z,78.62
2018-01-12T06:39:43.399Z,79.45
2018-01-12T06:42:11.881Z,78.40
2018-01-12T06:44:40.441Z,77.92
2018-01-12T06:47:08.935Z,78.88
2018-01-12T06:49:37.481Z,77.43
2018-01-12T06:52:06.968Z,76.88
2018-01-12T06:54:35.528Z,77.48
2018-01-12T06:57:05.682Z,77.66
2018-01-12T06:59:35.183Z,79.19
2018-01-12T07:02:04.484Z,79.72
2018-01-12T07:04:36.356Z,77.94
2018-01-12T07:07:06.324Z,78.10
2018-01-12T07:09:35.328Z,78.09
2018-01-12T07:12:09.001Z,77.42
2018-01-12T07:14:37.662Z,78.08
2018-01-12T07:17:08.833Z,77.18
2018-01-12T07:19:39.768Z,76.16
2018-01-12T07:22:27.739Z,75.74
2018-01-12T07:24:56.375Z,76.06
2018-01-12T07:27:24.881Z,75.41
2018-01-12T07:29:53.492Z,75.68
2018-01-12T07:32:22.292Z,75.83
2018-01-12T07:34:51.568Z,75.41
2018-01-12T07:37:20.063Z,76.01
2018-01-12T07:39:48.660Z,75.39
2018-01-12T07:42:17.203Z,76.06
2018-01-12T07:44:45.751Z,75.70
2018-01-12T07:47:14.352Z,75.07
2018-01-12T07:49:42.856Z,74.26
2018-01-12T07:52:11.356Z,74.09
2018-01-12T07:54:39.958Z,74.28
2018-01-12T07:57:08.532Z,72.71
2018-01-12T07:59:37.499Z,72.28
2018-01-12T08:02:11.796Z,71.93
2018-01-12T08:04:40.288Z,70.82
2018-01-12T08:07:08.782Z,71.08
2018-01-12T08:09:37.426Z,71.27
2018-01-12T08:12:06.144Z,68.57
2018-01-12T08:14:34.726Z,69.66
2018-01-12T08:17:03.263Z,70.60
2018-01-12T08:19:32.712Z,68.39
2018-01-12T08:22:01.397Z,68.04
2018-01-12T08:24:29.964Z,68.02
2018-01-12T08:26:58.459Z,68.08
2018-01-12T08:29:26.947Z,66.98
2018-01-12T08:31:55.636Z,67.98
2018-01-12T08:34:24.131Z,68.83
2018-01-12T08:36:52.851Z,68.24
2018-01-12T08:39:22.183Z,67.49
2018-01-12T08:41:50.678Z,67.94
2018-01-12T08:44:19.179Z,65.45
2018-01-12T08:46:47.887Z,66.03
2018-01-12T08:49:17.170Z,64.06
2018-01-12T08:51:46.427Z,64.54
2018-01-12T08:54:15.202Z,65.14
2018-01-12T08:56:43.921Z,63.69
2018-01-12T08:59:12.435Z,65.77
2018-01-12T09:01:41.036Z,62.92
2018-01-12T09:04:10.294Z,63.30
2018-01-12T09:06:38.973Z,64.44
2018-01-12T09:09:07.695Z,64.67
2018-01-12T09:11:36.263Z,62.40
2018-01-12T09:14:22.669Z,63.90
2018-01-12T09:16:52.911Z,61.87
2018-01-12T09:19:46.720Z,63.10
2018-01-12T09:25:10.768Z,62.50
2018-01-12T09:27:39.263Z,62.75
2018-01-12T09:30:08.526Z,63.75
2018-01-12T09:32:37.155Z,64.56
2018-01-12T09:35:06.568Z,65.61
2018-01-12T09:37:41.903Z,64.51
2018-01-12T09:43:11.793Z,63.64
2018-01-12T09:45:40.370Z,64.53
2018-01-12T09:48:36.487Z,66.15
2018-01-12T09:51:04.998Z,63.70
2018-01-12T09:53:33.558Z,63.51
2018-01-12T09:56:02.200Z,63.57
2018-01-12T09:58:31.764Z,64.57
2018-01-12T10:01:05.849Z,65.56
2018-01-12T10:03:34.387Z,65.50
2018-01-12T10:06:03.704Z,64.69
2018-01-12T10:08:32.431Z,64.17
2018-01-12T10:11:00.927Z,66.05
2018-01-12T10:13:29.419Z,65.60
2018-01-12T12:12:05.967Z,67.19
2018-01-12T12:16:24.039Z,66.18
2018-01-12T12:18:53.535Z,66.18
2018-01-12T12:21:22.855Z,66.06
2018-01-12T12:23:51.351Z,64.94
2018-01-12T12:26:19.958Z,66.43
2018-01-12T12:28:48.509Z,65.98
2018-01-12T12:31:17.066Z,65.40
2018-01-12T12:33:46.569Z,65.68
2018-01-12T12:36:15.862Z,65.79
2018-01-12T12:38:44.438Z,65.18
2018-01-12T12:41:14.068Z,65.05
2018-01-12T12:43:43.380Z,66.55
2018-01-12T12:46:11.955Z,66.70
2018-01-12T12:48:41.279Z,66.61
2018-01-12T12:51:09.779Z,67.64
2018-01-12T12:53:38.327Z,68.88
2018-01-12T12:56:06.961Z,68.54
2018-01-12T12:58:35.515Z,68.64
2018-01-12T13:01:04.050Z,69.44
2018-01-12T13:03:32.688Z,69.49
2018-01-12T13:06:01.192Z,69.86
2018-01-12T13:08:29.688Z,70.62
2018-01-12T13:10:58.483Z,71.24
2018-01-12T13:13:27.035Z,71.57
2018-01-12T13:15:55.527Z,71.40
2018-01-12T13:18:24.511Z,70.80
2018-01-12T13:20:53.067Z,70.75
2018-01-12T13:23:21.560Z,70.00
2018-01-12T13:25:50.184Z,71.09
2018-01-12T13:28:18.673Z,71.42
2018-01-12T13:30:47.938Z,71.96
2018-01-12T13:33:16.546Z,71.91
2018-01-12T13:35:45.049Z,71.87
2018-01-12T13:38:14.315Z,72.27
2018-01-12T13:40:42.863Z,73.59
2018-01-12T13:43:11.437Z,73.70
2018-01-12T13:45:40.055Z,72.97
2018-01-12T13:48:08.655Z,73.45
2018-01-12T13:50:37.632Z,73.99
2018-01-12T13:53:06.185Z,74.49
2018-01-12T13:55:35.004Z,74.40
2018-01-12T13:58:03.501Z,73.99
2018-01-12T14:00:32.034Z,73.80
2018-01-12T14:03:00.662Z,73.37
2018-01-12T14:05:29.171Z,73.04
2018-01-12T14:07:58.445Z,71.88
2018-01-12T14:10:27.057Z,72.46
2018-01-12T14:12:56.926Z,72.02
2018-01-12T14:15:25.512Z,72.03
2018-01-12T14:17:54.060Z,73.10
2018-01-12T14:20:22.547Z,73.30
2018-01-12T14:22:51.096Z,73.69
2018-01-12T14:25:20.603Z,73.92
2018-01-12T14:27:49.872Z,74.75
2018-01-12T14:30:18.446Z,74.30
2018-01-12T14:32:47.860Z,74.51
2018-01-12T14:35:16.383Z,75.03
2018-01-12T14:37:45.652Z,74.85
2018-01-12T14:40:14.283Z,74.87
2018-01-12T14:42:42.783Z,75.37
2018-01-12T14:45:11.278Z,74.64
2018-01-12T14:47:40.020Z,75.80
2018-01-12T14:50:09.286Z,75.39
2018-01-12T14:52:37.855Z,75.49
2018-01-12T14:55:06.389Z,75.13
2018-01-12T14:57:35.650Z,75.50
2018-01-12T15:00:04.235Z,75.62
2018-01-12T15:02:33.119Z,75.24
2018-01-12T15:05:01.638Z,75.45
2018-01-12T15:07:30.900Z,76.18
2018-01-12T15:09:59.616Z,76.20
2018-01-12T15:12:28.888Z,76.16
2018-01-12T15:14:57.452Z,75.94
2018-01-12T15:17:26.083Z,76.63
2018-01-12T15:19:55.339Z,76.56
2018-01-12T15:22:23.843Z,76.31
2018-01-12T15:24:52.421Z,76.50
2018-01-12T15:27:20.941Z,76.80
2018-01-12T15:29:49.435Z,77.14
2018-01-12T15:32:18.028Z,77.10
2018-01-12T15:34:46.525Z,77.09
2018-01-12T15:37:15.019Z,77.86
2018-01-12T15:39:43.834Z,78.58
2018-01-12T15:42:12.387Z,78.55
2018-01-12T15:44:40.888Z,78.22
2018-01-12T15:47:09.576Z,78.55
2018-01-12T15:49:38.079Z,78.23
2018-01-12T15:52:07.409Z,78.21
2018-01-12T15:54:35.975Z,78.65
2018-01-12T15:57:05.311Z,78.60
2018-01-12T15:59:33.812Z,78.16
2018-01-12T16:02:03.647Z,77.29
2018-01-12T16:04:32.143Z,76.62
2018-01-12T16:07:01.440Z,77.06
2018-01-12T16:09:31.108Z,77.55
2018-01-12T16:11:59.706Z,78.00
2018-01-12T16:14:28.212Z,78.14
2018-01-12T16:16:57.619Z,77.73
2018-01-12T16:19:26.871Z,76.99
2018-01-12T16:21:55.367Z,76.59
2018-01-12T16:24:24.063Z,76.10
2018-01-12T16:26:52.572Z,76.47
2018-01-12T16:29:21.832Z,76.72
2018-01-12T16:31:50.604Z,77.17
2018-01-12T16:34:19.101Z,77.56
2018-01-12T16:36:47.607Z,77.46
2018-01-12T16:39:17.472Z,77.50
2018-01-12T16:41:45.532Z,77.61
2018-01-12T16:44:14.036Z,78.18
2018-01-12T16:46:42.579Z,78.01
2018-01-12T16:49:11.083Z,77.90
2018-01-12T16:51:39.598Z,78.52
2018-01-12T16:54:08.197Z,78.16
2018-01-12T16:56:36.707Z,78.11
2018-01-12T16:59:05.275Z,77.47
2018-01-12T17:01:34.984Z,77.56
2018-01-12T17:04:04.357Z,77.39
2018-01-12T17:06:32.870Z,77.07
2018-01-12T17:09:02.188Z,77.44
2018-01-12T17:11:30.682Z,77.05
2018-01-12T17:13:59.189Z,76.63
2018-01-12T17:16:27.921Z,76.81
2018-01-12T17:18:57.194Z,77.52
2018-01-12T17:21:25.700Z,77.66
2018-01-12T17:23:55.195Z,77.41
2018-01-12T17:26:23.708Z,77.31
2018-01-12T17:28:52.277Z,77.28
2018-01-12T17:31:21.613Z,77.88
2018-01-12T17:33:50.169Z,77.62
2018-01-12T17:36:19.456Z,77.61
2018-01-12T17:38:48.985Z,77.79
2018-01-12T17:41:17.481Z,77.87
2018-01-12T17:43:45.984Z,78.03
2018-01-12T17:46:14.713Z,77.87
2018-01-12T17:48:44.038Z,77.94
2018-01-12T17:51:12.551Z,78.33
2018-01-12T17:53:41.151Z,77.91
2018-01-12T17:56:09.659Z,78.08
2018-01-12T17:58:38.925Z,78.17
2018-01-12T18:01:07.486Z,78.29
2018-01-12T18:03:36.062Z,78.26
2018-01-12T18:06:04.623Z,78.49
2018-01-12T18:08:34.004Z,78.97
2018-01-12T18:11:03.347Z,78.82
2018-01-12T18:13:31.920Z,78.66
2018-01-12T18:16:00.741Z,78.46
2018-01-12T18:18:29.245Z,78.48
2018-01-12T18:20:57.810Z,78.32
2018-01-12T18:23:26.354Z,78.24
2018-01-12T18:25:54.851Z,78.02
2018-01-12T18:28:23.344Z,79.00
2018-01-12T18:30:51.983Z,79.11
2018-01-12T18:33:21.300Z,78.97
2018-01-12T18:35:49.900Z,78.59
2018-01-12T18:38:19.598Z,79.04
2018-01-12T18:40:48.106Z,78.88
2018-01-12T18:43:16.598Z,78.97
2018-01-12T18:45:45.300Z,79.33
2018-01-12T18:48:13.780Z,79.21
2018-01-12T18:50:42.283Z,79.10
2018-01-12T18:53:11.841Z,79.26
2018-01-12T18:55:40.340Z,79.17
2018-01-12T18:58:09.523Z,79.28
2018-01-12T19:00:39.057Z,79.11
2018-01-12T19:03:07.595Z,79.93
2018-01-12T19:05:36.085Z,80.35
2018-01-12T19:08:05.086Z,79.82
2018-01-12T19:10:33.580Z,79.82
2018-01-12T19:13:02.207Z,79.74
2018-01-12T19:15:31.659Z,79.42
2018-01-12T19:18:00.345Z,79.63
2018-01-12T19:20:28.989Z,78.89
2018-01-12T19:22:57.879Z,79.47
2018-01-12T19:25:27.140Z,79.79
2018-01-12T19:27:55.647Z,79.01
2018-01-12T19:30:24.496Z,79.03
2018-01-12T19:32:53.767Z,78.76
2018-01-12T19:35:22.320Z,78.59
2018-01-12T19:37:51.087Z,78.91
2018-01-12T19:40:20.352Z,78.65
2018-01-12T19:42:48.864Z,79.27
2018-01-12T19:45:18.341Z,79.46
2018-01-12T19:47:46.847Z,79.95
2018-01-12T19:50:16.204Z,79.73
2018-01-12T19:52:44.888Z,79.48
2018-01-12T19:55:13.384Z,79.66
2018-01-12T19:57:41.891Z,79.38
2018-01-12T20:00:11.203Z,79.31
2018-01-12T20:02:40.621Z,79.44
2018-01-12T20:05:09.111Z,79.74
2018-01-12T20:07:37.924Z,79.51
2018-01-12T20:10:07.219Z,79.87
2018-01-12T20:12:35.773Z,79.67
2018-01-12T20:15:04.597Z,79.41
2018-01-12T20:17:33.098Z,79.28
2018-01-12T20:20:01.592Z,79.59
2018-01-12T20:22:30.170Z,79.19
2018-01-12T20:24:58.660Z,78.77
2018-01-12T20:27:27.142Z,78.95
2018-01-12T20:29:55.881Z,78.60
2018-01-12T20:32:24.375Z,78.84
2018-01-12T20:34:53.062Z,78.89
2018-01-12T20:37:21.783Z,79.07
2018-01-12T20:39:50.311Z,79.81
2018-01-12T20:42:19.304Z,79.91
2018-01-12T20:44:48.039Z,79.03
2018-01-12T20:47:16.901Z,78.30
2018-01-12T20:49:45.619Z,78.53
2018-01-12T20:52:15.591Z,78.86
2018-01-12T20:54:44.083Z,78.99
2018-01-12T20:57:12.750Z,79.58
2018-01-12T20:59:42.246Z,79.16
2018-01-12T21:02:11.536Z,78.75
2018-01-12T21:04:41.547Z,78.84
2018-01-12T21:07:10.570Z,78.91
2018-01-12T21:09:40.021Z,79.37
2018-01-12T21:12:08.509Z,79.20
2018-01-12T21:14:37.467Z,79.24
2018-01-12T21:17:05.970Z,79.05
2018-01-12T21:19:34.463Z,79.57
2018-01-12T21:22:03.184Z,79.60
2018-01-12T21:24:32.544Z,79.26
2018-01-12T21:27:01.035Z,78.96
2018-01-12T21:29:30.222Z,78.48
2018-01-12T21:31:58.722Z,78.02
2018-01-12T21:34:27.215Z,77.87
2018-01-12T21:36:57.509Z,78.29
2018-01-12T21:39:26.011Z,78.85
2018-01-12T21:41:54.519Z,77.99
2018-01-12T21:44:23.091Z,78.44
2018-01-12T21:46:52.507Z,78.60
2018-01-12T21:49:21.970Z,78.36
2018-01-12T21:51:50.687Z,78.09
2018-01-12T21:54:19.955Z,77.49
2018-01-12T21:56:48.522Z,76.95
2018-01-12T21:59:17.424Z,77.62
2018-01-12T22:01:45.912Z,77.14
2018-01-12T22:04:14.404Z,77.11
2018-01-12T22:06:42.963Z,77.02
2018-01-12T22:09:11.553Z,76.16
2018-01-12T22:11:40.240Z,76.44
2018-01-12T22:14:09.174Z,75.69
2018-01-12T22:16:38.635Z,77.16
2018-01-12T22:19:07.284Z,78.25
2018-01-12T22:21:36.004Z,78.76
2018-01-12T22:24:04.520Z,77.80
2018-01-12T22:26:34.351Z,77.65
2018-01-12T22:29:03.904Z,77.99
2018-01-12T22:31:32.548Z,78.02
2018-01-12T22:34:01.275Z,78.17
2018-01-12T22:36:29.843Z,78.37
2018-01-12T22:38:58.548Z,78.04
2018-01-12T22:41:27.038Z,79.24
2018-01-12T22:43:55.743Z,79.53
2018-01-12T22:46:24.396Z,79.72
2018-01-12T22:48:52.887Z,79.27
2018-01-12T22:51:21.455Z,79.64
2018-01-12T22:53:49.951Z,79.45
2018-01-12T22:56:18.524Z,79.61
2018-01-12T22:58:47.454Z,79.69
2018-01-12T23:01:17.449Z,80.09
2018-01-12T23:03:46.938Z,79.71
2018-01-12T23:06:15.427Z,79.58
2018-01-12T23:08:43.913Z,79.83
2018-01-12T23:11:12.800Z,79.57
2018-01-12T23:13:41.287Z,79.72
2018-01-12T23:16:09.968Z,79.20
2018-01-12T23:18:38.651Z,79.24
2018-01-12T23:21:07.154Z,79.13
2018-01-12T23:23:36.420Z,79.29
2018-01-12T23:26:05.214Z,79.31
2018-01-12T23:28:33.698Z,79.00
2018-01-12T23:31:02.182Z,78.81
2018-01-12T23:33:31.111Z,78.59
2018-01-12T23:36:00.410Z,78.38
2018-01-12T23:38:29.872Z,78.89
2018-01-12T23:40:58.811Z,78.84
2018-01-12T23:43:28.277Z,78.55
2018-01-12T23:45:56.774Z,77.84
2018-01-12T23:48:25.596Z,77.71
2018-01-12T23:50:55.035Z,77.83
2018-01-12T23:53:23.527Z,77.93
2018-01-12T23:55:52.318Z,77.96
2018-01-12T23:58:20.859Z,78.30
